Paint Mill Lake, Indiana
Current Conditions -  °F | °C
As of 8:53 AM on Thursday 27 Nov 2014 (Local Time) from KHUF Reporting Station
Haze Haze  
Wind Chill: 16°   Ceiling: 4500
Heat Index: 26°   Visibility: 5mi
Dew Point: 22°   Wind: 10mph
Humidity: 84%   Direction: 310°NW
Pressure: 30.34"   Gusts: NA
Location:  39.3587°N, 87.4056°W
Report Text: KHUF 271353Z 31009KT 5SM BR SCT011 OVC045 M03/M06 A3034 RMK AO2 SLP282 T10331056
Loading
Personal Weather Stations






























Interactive Weather Map New forecast layout! Learn more

10-Day Weather Forecast

Advertisements
Track Severe Weather on mobile